sensor_id;sensor_type;location;lat;lon;timestamp;P1;durP1;ratioP1;P2;durP2;ratioP2
7432;SDS011;32233;49.500;7.764;2023-11-19T00:00:07;0.60;;;0.40;;
7432;SDS011;32233;49.500;7.764;2023-11-19T00:02:41;0.93;;;0.50;;
7432;SDS011;32233;49.500;7.764;2023-11-19T00:05:09;0.47;;;0.47;;
7432;SDS011;32233;49.500;7.764;2023-11-19T00:07:39;0.60;;;0.37;;
7432;SDS011;32233;49.500;7.764;2023-11-19T00:10:09;0.60;;;0.40;;
7432;SDS011;32233;49.500;7.764;2023-11-19T00:12:38;0.40;;;0.40;;
7432;SDS011;32233;49.500;7.764;2023-11-19T00:15:06;0.47;;;0.40;;
7432;SDS011;32233;49.500;7.764;2023-11-19T00:17:37;1.10;;;0.30;;
7432;SDS011;32233;49.500;7.764;2023-11-19T00:22:39;1.00;;;0.37;;
7432;SDS011;32233;49.500;7.764;2023-11-19T00:25:15;1.23;;;0.30;;
7432;SDS011;32233;49.500;7.764;2023-11-19T00:27:41;0.40;;;0.40;;
7432;SDS011;32233;49.500;7.764;2023-11-19T00:30:11;2.37;;;0.40;;
7432;SDS011;32233;49.500;7.764;2023-11-19T00:32:37;1.30;;;0.50;;
7432;SDS011;32233;49.500;7.764;2023-11-19T00:35:05;0.40;;;0.40;;
7432;SDS011;32233;49.500;7.764;2023-11-19T00:37:33;0.80;;;0.40;;
7432;SDS011;32233;49.500;7.764;2023-11-19T00:40:00;1.43;;;0.50;;
7432;SDS011;32233;49.500;7.764;2023-11-19T00:42:27;1.90;;;0.47;;
7432;SDS011;32233;49.500;7.764;2023-11-19T00:44:53;0.50;;;0.50;;
7432;SDS011;32233;49.500;7.764;2023-11-19T00:47:21;0.73;;;0.60;;
7432;SDS011;32233;49.500;7.764;2023-11-19T00:49:48;1.10;;;0.40;;
7432;SDS011;32233;49.500;7.764;2023-11-19T00:52:18;1.47;;;0.40;;
7432;SDS011;32233;49.500;7.764;2023-11-19T00:54:45;0.60;;;0.40;;
7432;SDS011;32233;49.500;7.764;2023-11-19T00:57:12;0.87;;;0.50;;
7432;SDS011;32233;49.500;7.764;2023-11-19T00:59:41;0.50;;;0.50;;
7432;SDS011;32233;49.500;7.764;2023-11-19T01:02:08;0.30;;;0.30;;
7432;SDS011;32233;49.500;7.764;2023-11-19T01:04:35;1.60;;;0.40;;
7432;SDS011;32233;49.500;7.764;2023-11-19T01:07:02;0.30;;;0.30;;
7432;SDS011;32233;49.500;7.764;2023-11-19T01:09:31;1.00;;;0.30;;
7432;SDS011;32233;49.500;7.764;2023-11-19T01:11:58;0.97;;;0.40;;
7432;SDS011;32233;49.500;7.764;2023-11-19T01:14:27;1.03;;;0.30;;
7432;SDS011;32233;49.500;7.764;2023-11-19T01:16:54;0.30;;;0.30;;
7432;SDS011;32233;49.500;7.764;2023-11-19T01:19:21;0.97;;;0.30;;
7432;SDS011;32233;49.500;7.764;2023-11-19T01:21:49;0.80;;;0.40;;
7432;SDS011;32233;49.500;7.764;2023-11-19T01:24:16;0.97;;;0.40;;
7432;SDS011;32233;49.500;7.764;2023-11-19T01:26:43;0.40;;;0.40;;
7432;SDS011;32233;49.500;7.764;2023-11-19T01:29:12;0.97;;;0.33;;
7432;SDS011;32233;49.500;7.764;2023-11-19T01:31:42;1.53;;;0.40;;
7432;SDS011;32233;49.500;7.764;2023-11-19T01:34:10;1.13;;;0.30;;
7432;SDS011;32233;49.500;7.764;2023-11-19T01:36:36;0.30;;;0.30;;
7432;SDS011;32233;49.500;7.764;2023-11-19T01:39:03;0.40;;;0.30;;
7432;SDS011;32233;49.500;7.764;2023-11-19T01:41:36;0.97;;;0.30;;
7432;SDS011;32233;49.500;7.764;2023-11-19T01:44:08;0.47;;;0.40;;
7432;SDS011;32233;49.500;7.764;2023-11-19T01:46:34;0.40;;;0.40;;
7432;SDS011;32233;49.500;7.764;2023-11-19T01:49:02;2.10;;;0.30;;
7432;SDS011;32233;49.500;7.764;2023-11-19T01:51:29;1.33;;;0.40;;
7432;SDS011;32233;49.500;7.764;2023-11-19T01:53:56;0.30;;;0.30;;
7432;SDS011;32233;49.500;7.764;2023-11-19T01:56:24;0.87;;;0.23;;
7432;SDS011;32233;49.500;7.764;2023-11-19T01:58:53;0.97;;;0.40;;
7432;SDS011;32233;49.500;7.764;2023-11-19T02:01:21;3.10;;;0.43;;
7432;SDS011;32233;49.500;7.764;2023-11-19T02:03:48;0.33;;;0.33;;
7432;SDS011;32233;49.500;7.764;2023-11-19T02:06:15;1.23;;;0.40;;
7432;SDS011;32233;49.500;7.764;2023-11-19T02:08:42;0.80;;;0.50;;
7432;SDS011;32233;49.500;7.764;2023-11-19T02:11:10;0.40;;;0.40;;
7432;SDS011;32233;49.500;7.764;2023-11-19T02:13:38;0.40;;;0.40;;
7432;SDS011;32233;49.500;7.764;2023-11-19T02:16:07;1.27;;;0.40;;
7432;SDS011;32233;49.500;7.764;2023-11-19T02:18:37;0.40;;;0.40;;
7432;SDS011;32233;49.500;7.764;2023-11-19T02:21:04;0.33;;;0.33;;
7432;SDS011;32233;49.500;7.764;2023-11-19T02:23:31;2.13;;;0.50;;
7432;SDS011;32233;49.500;7.764;2023-11-19T02:26:15;0.50;;;0.50;;
7432;SDS011;32233;49.500;7.764;2023-11-19T02:28:49;0.50;;;0.50;;
7432;SDS011;32233;49.500;7.764;2023-11-19T02:31:16;0.60;;;0.60;;
7432;SDS011;32233;49.500;7.764;2023-11-19T02:33:43;0.50;;;0.50;;
7432;SDS011;32233;49.500;7.764;2023-11-19T02:36:10;1.60;;;0.73;;
7432;SDS011;32233;49.500;7.764;2023-11-19T02:38:37;1.33;;;0.67;;
7432;SDS011;32233;49.500;7.764;2023-11-19T02:41:03;1.50;;;0.60;;
7432;SDS011;32233;49.500;7.764;2023-11-19T02:43:32;1.70;;;0.67;;
7432;SDS011;32233;49.500;7.764;2023-11-19T02:46:00;0.60;;;0.60;;
7432;SDS011;32233;49.500;7.764;2023-11-19T02:48:36;0.60;;;0.50;;
7432;SDS011;32233;49.500;7.764;2023-11-19T02:51:04;0.60;;;0.60;;
7432;SDS011;32233;49.500;7.764;2023-11-19T02:53:31;0.80;;;0.80;;
7432;SDS011;32233;49.500;7.764;2023-11-19T02:55:58;0.90;;;0.70;;
7432;SDS011;32233;49.500;7.764;2023-11-19T02:58:33;1.73;;;0.70;;
7432;SDS011;32233;49.500;7.764;2023-11-19T03:01:00;0.70;;;0.70;;
7432;SDS011;32233;49.500;7.764;2023-11-19T03:03:36;0.80;;;0.80;;
7432;SDS011;32233;49.500;7.764;2023-11-19T03:06:07;1.43;;;0.70;;
7432;SDS011;32233;49.500;7.764;2023-11-19T03:08:35;0.80;;;0.80;;
7432;SDS011;32233;49.500;7.764;2023-11-19T03:11:02;0.53;;;0.53;;
7432;SDS011;32233;49.500;7.764;2023-11-19T03:13:31;1.50;;;0.87;;
7432;SDS011;32233;49.500;7.764;2023-11-19T03:15:57;0.70;;;0.70;;
7432;SDS011;32233;49.500;7.764;2023-11-19T03:18:24;0.83;;;0.70;;
7432;SDS011;32233;49.500;7.764;2023-11-19T03:20:51;2.10;;;0.60;;
7432;SDS011;32233;49.500;7.764;2023-11-19T03:23:18;0.60;;;0.60;;
7432;SDS011;32233;49.500;7.764;2023-11-19T03:25:45;0.50;;;0.50;;
7432;SDS011;32233;49.500;7.764;2023-11-19T03:28:11;1.27;;;0.60;;
7432;SDS011;32233;49.500;7.764;2023-11-19T03:30:38;0.57;;;0.57;;
7432;SDS011;32233;49.500;7.764;2023-11-19T03:33:05;1.10;;;0.50;;
7432;SDS011;32233;49.500;7.764;2023-11-19T03:35:31;1.23;;;0.70;;
7432;SDS011;32233;49.500;7.764;2023-11-19T03:37:59;0.70;;;0.70;;
7432;SDS011;32233;49.500;7.764;2023-11-19T03:40:27;2.10;;;0.80;;
7432;SDS011;32233;49.500;7.764;2023-11-19T03:42:57;1.43;;;0.80;;
7432;SDS011;32233;49.500;7.764;2023-11-19T03:45:24;1.70;;;0.80;;
7432;SDS011;32233;49.500;7.764;2023-11-19T03:47:51;1.30;;;1.00;;
7432;SDS011;32233;49.500;7.764;2023-11-19T03:50:18;2.10;;;1.00;;
7432;SDS011;32233;49.500;7.764;2023-11-19T03:52:47;2.53;;;1.20;;
7432;SDS011;32233;49.500;7.764;2023-11-19T03:55:13;1.50;;;1.40;;
7432;SDS011;32233;49.500;7.764;2023-11-19T03:57:40;1.60;;;1.50;;
7432;SDS011;32233;49.500;7.764;2023-11-19T04:00:07;2.00;;;1.80;;
7432;SDS011;32233;49.500;7.764;2023-11-19T04:02:39;2.70;;;1.57;;
7432;SDS011;32233;49.500;7.764;2023-11-19T04:05:06;1.80;;;1.70;;
7432;SDS011;32233;49.500;7.764;2023-11-19T04:07:33;2.40;;;2.20;;
7432;SDS011;32233;49.500;7.764;2023-11-19T04:10:00;3.77;;;2.70;;
7432;SDS011;32233;49.500;7.764;2023-11-19T04:12:27;4.17;;;3.13;;
7432;SDS011;32233;49.500;7.764;2023-11-19T04:14:53;4.13;;;3.47;;
7432;SDS011;32233;49.500;7.764;2023-11-19T04:17:23;4.13;;;3.73;;
7432;SDS011;32233;49.500;7.764;2023-11-19T04:19:49;4.90;;;4.20;;
7432;SDS011;32233;49.500;7.764;2023-11-19T04:22:16;5.10;;;4.60;;
7432;SDS011;32233;49.500;7.764;2023-11-19T04:24:44;5.53;;;4.80;;
7432;SDS011;32233;49.500;7.764;2023-11-19T04:27:12;6.53;;;5.03;;
7432;SDS011;32233;49.500;7.764;2023-11-19T04:29:39;7.13;;;5.03;;
7432;SDS011;32233;49.500;7.764;2023-11-19T04:32:05;6.30;;;5.40;;
7432;SDS011;32233;49.500;7.764;2023-11-19T04:34:32;6.70;;;5.10;;
7432;SDS011;32233;49.500;7.764;2023-11-19T04:36:59;7.67;;;5.57;;
7432;SDS011;32233;49.500;7.764;2023-11-19T04:39:32;7.60;;;5.60;;
7432;SDS011;32233;49.500;7.764;2023-11-19T04:41:59;5.97;;;5.20;;
7432;SDS011;32233;49.500;7.764;2023-11-19T04:44:25;6.90;;;5.23;;
7432;SDS011;32233;49.500;7.764;2023-11-19T04:46:52;7.07;;;5.63;;
7432;SDS011;32233;49.500;7.764;2023-11-19T04:49:18;8.67;;;5.93;;
7432;SDS011;32233;49.500;7.764;2023-11-19T04:51:45;5.93;;;4.50;;
7432;SDS011;32233;49.500;7.764;2023-11-19T04:54:15;4.87;;;4.37;;
7432;SDS011;32233;49.500;7.764;2023-11-19T04:56:44;6.53;;;4.73;;
7432;SDS011;32233;49.500;7.764;2023-11-19T04:59:12;5.40;;;4.40;;
7432;SDS011;32233;49.500;7.764;2023-11-19T05:01:39;4.37;;;3.97;;
7432;SDS011;32233;49.500;7.764;2023-11-19T05:04:06;4.90;;;4.37;;
7432;SDS011;32233;49.500;7.764;2023-11-19T05:06:34;5.03;;;3.70;;
7432;SDS011;32233;49.500;7.764;2023-11-19T05:09:01;5.27;;;3.67;;
7432;SDS011;32233;49.500;7.764;2023-11-19T05:11:32;5.03;;;3.33;;
7432;SDS011;32233;49.500;7.764;2023-11-19T05:14:02;3.50;;;3.20;;
7432;SDS011;32233;49.500;7.764;2023-11-19T05:16:30;6.03;;;2.60;;
7432;SDS011;32233;49.500;7.764;2023-11-19T05:18:57;3.83;;;3.10;;
7432;SDS011;32233;49.500;7.764;2023-11-19T05:21:24;3.70;;;3.00;;
7432;SDS011;32233;49.500;7.764;2023-11-19T05:23:50;3.30;;;3.00;;
7432;SDS011;32233;49.500;7.764;2023-11-19T05:26:18;3.70;;;2.83;;
7432;SDS011;32233;49.500;7.764;2023-11-19T05:28:45;4.00;;;3.20;;
7432;SDS011;32233;49.500;7.764;2023-11-19T05:31:12;4.13;;;3.20;;
7432;SDS011;32233;49.500;7.764;2023-11-19T05:33:39;3.97;;;3.30;;
7432;SDS011;32233;49.500;7.764;2023-11-19T05:36:05;5.57;;;3.80;;
7432;SDS011;32233;49.500;7.764;2023-11-19T05:38:35;4.67;;;4.07;;
7432;SDS011;32233;49.500;7.764;2023-11-19T05:41:02;5.43;;;3.97;;
7432;SDS011;32233;49.500;7.764;2023-11-19T05:43:29;5.70;;;4.17;;
7432;SDS011;32233;49.500;7.764;2023-11-19T05:45:56;5.07;;;4.10;;
7432;SDS011;32233;49.500;7.764;2023-11-19T05:48:25;6.00;;;4.17;;
7432;SDS011;32233;49.500;7.764;2023-11-19T05:50:52;4.33;;;3.80;;
7432;SDS011;32233;49.500;7.764;2023-11-19T05:53:19;7.27;;;4.53;;
7432;SDS011;32233;49.500;7.764;2023-11-19T05:55:46;5.37;;;4.10;;
7432;SDS011;32233;49.500;7.764;2023-11-19T05:58:24;5.20;;;4.13;;
7432;SDS011;32233;49.500;7.764;2023-11-19T06:00:58;5.10;;;3.53;;
7432;SDS011;32233;49.500;7.764;2023-11-19T06:03:27;4.47;;;3.47;;
7432;SDS011;32233;49.500;7.764;2023-11-19T06:05:54;6.83;;;3.53;;
7432;SDS011;32233;49.500;7.764;2023-11-19T06:08:21;3.33;;;3.07;;
7432;SDS011;32233;49.500;7.764;2023-11-19T06:10:47;4.47;;;3.53;;
7432;SDS011;32233;49.500;7.764;2023-11-19T06:13:16;6.57;;;3.30;;
7432;SDS011;32233;49.500;7.764;2023-11-19T06:15:43;4.33;;;3.00;;
7432;SDS011;32233;49.500;7.764;2023-11-19T06:18:10;3.00;;;2.80;;
7432;SDS011;32233;49.500;7.764;2023-11-19T06:20:39;4.37;;;2.90;;
7432;SDS011;32233;49.500;7.764;2023-11-19T06:23:09;6.60;;;2.90;;
7432;SDS011;32233;49.500;7.764;2023-11-19T06:25:36;3.17;;;2.70;;
7432;SDS011;32233;49.500;7.764;2023-11-19T06:28:03;3.67;;;2.80;;
7432;SDS011;32233;49.500;7.764;2023-11-19T06:30:30;4.20;;;2.80;;
7432;SDS011;32233;49.500;7.764;2023-11-19T06:32:58;3.23;;;2.70;;
7432;SDS011;32233;49.500;7.764;2023-11-19T06:35:26;2.70;;;2.40;;
7432;SDS011;32233;49.500;7.764;2023-11-19T06:37:55;3.30;;;2.77;;
7432;SDS011;32233;49.500;7.764;2023-11-19T06:40:22;6.23;;;2.70;;
7432;SDS011;32233;49.500;7.764;2023-11-19T06:42:48;4.17;;;2.30;;
7432;SDS011;32233;49.500;7.764;2023-11-19T06:45:15;5.03;;;2.83;;
7432;SDS011;32233;49.500;7.764;2023-11-19T06:47:42;2.83;;;2.47;;
7432;SDS011;32233;49.500;7.764;2023-11-19T06:50:08;4.77;;;2.53;;
7432;SDS011;32233;49.500;7.764;2023-11-19T06:52:35;3.33;;;2.50;;
7432;SDS011;32233;49.500;7.764;2023-11-19T06:55:04;4.67;;;2.70;;
7432;SDS011;32233;49.500;7.764;2023-11-19T06:57:34;4.67;;;2.90;;
7432;SDS011;32233;49.500;7.764;2023-11-19T07:00:01;6.60;;;2.73;;
7432;SDS011;32233;49.500;7.764;2023-11-19T07:02:28;4.57;;;2.53;;
7432;SDS011;32233;49.500;7.764;2023-11-19T07:04:54;4.93;;;2.77;;
7432;SDS011;32233;49.500;7.764;2023-11-19T07:07:21;7.20;;;2.57;;
7432;SDS011;32233;49.500;7.764;2023-11-19T07:09:48;6.53;;;2.87;;
7432;SDS011;32233;49.500;7.764;2023-11-19T07:12:14;6.37;;;2.47;;
7432;SDS011;32233;49.500;7.764;2023-11-19T07:14:42;3.97;;;2.80;;
7432;SDS011;32233;49.500;7.764;2023-11-19T07:17:08;3.80;;;2.50;;
7432;SDS011;32233;49.500;7.764;2023-11-19T07:19:36;4.07;;;2.33;;
7432;SDS011;32233;49.500;7.764;2023-11-19T07:22:04;3.50;;;2.50;;
7432;SDS011;32233;49.500;7.764;2023-11-19T07:24:32;6.57;;;2.60;;
7432;SDS011;32233;49.500;7.764;2023-11-19T07:26:59;3.33;;;2.57;;
7432;SDS011;32233;49.500;7.764;2023-11-19T07:29:25;2.67;;;1.70;;
7432;SDS011;32233;49.500;7.764;2023-11-19T07:31:55;2.23;;;1.60;;
7432;SDS011;32233;49.500;7.764;2023-11-19T07:34:24;2.07;;;1.20;;
7432;SDS011;32233;49.500;7.764;2023-11-19T07:36:51;2.13;;;0.80;;
7432;SDS011;32233;49.500;7.764;2023-11-19T07:39:18;1.23;;;0.93;;
7432;SDS011;32233;49.500;7.764;2023-11-19T07:41:45;1.60;;;1.00;;
7432;SDS011;32233;49.500;7.764;2023-11-19T07:44:11;1.17;;;1.03;;
7432;SDS011;32233;49.500;7.764;2023-11-19T07:46:38;1.33;;;1.10;;
7432;SDS011;32233;49.500;7.764;2023-11-19T07:49:04;1.50;;;1.40;;
7432;SDS011;32233;49.500;7.764;2023-11-19T07:51:31;3.53;;;1.60;;
7432;SDS011;32233;49.500;7.764;2023-11-19T07:53:58;1.70;;;1.50;;
7432;SDS011;32233;49.500;7.764;2023-11-19T07:56:24;5.47;;;1.90;;
7432;SDS011;32233;49.500;7.764;2023-11-19T07:58:51;2.53;;;1.87;;
7432;SDS011;32233;49.500;7.764;2023-11-19T08:01:21;4.13;;;2.00;;
7432;SDS011;32233;49.500;7.764;2023-11-19T08:03:58;4.60;;;2.13;;
7432;SDS011;32233;49.500;7.764;2023-11-19T08:06:26;3.03;;;1.90;;
7432;SDS011;32233;49.500;7.764;2023-11-19T08:08:53;3.30;;;1.87;;
7432;SDS011;32233;49.500;7.764;2023-11-19T08:11:19;2.87;;;2.20;;
7432;SDS011;32233;49.500;7.764;2023-11-19T08:13:46;3.80;;;2.20;;
7432;SDS011;32233;49.500;7.764;2023-11-19T08:16:13;4.63;;;1.90;;
7432;SDS011;32233;49.500;7.764;2023-11-19T08:18:42;3.27;;;2.23;;
7432;SDS011;32233;49.500;7.764;2023-11-19T08:21:09;5.37;;;2.03;;
7432;SDS011;32233;49.500;7.764;2023-11-19T08:23:36;2.77;;;1.73;;
7432;SDS011;32233;49.500;7.764;2023-11-19T08:26:04;6.00;;;2.40;;
7432;SDS011;32233;49.500;7.764;2023-11-19T08:28:31;3.33;;;1.73;;
7432;SDS011;32233;49.500;7.764;2023-11-19T08:31:00;2.67;;;1.70;;
7432;SDS011;32233;49.500;7.764;2023-11-19T08:33:27;6.03;;;1.97;;
7432;SDS011;32233;49.500;7.764;2023-11-19T08:35:54;4.47;;;1.93;;
7432;SDS011;32233;49.500;7.764;2023-11-19T08:38:21;5.97;;;2.27;;
7432;SDS011;32233;49.500;7.764;2023-11-19T08:40:50;3.03;;;2.00;;
7432;SDS011;32233;49.500;7.764;2023-11-19T08:43:18;4.17;;;1.80;;
7432;SDS011;32233;49.500;7.764;2023-11-19T08:45:44;3.03;;;1.60;;
7432;SDS011;32233;49.500;7.764;2023-11-19T08:48:11;3.60;;;1.60;;
7432;SDS011;32233;49.500;7.764;2023-11-19T08:50:38;3.17;;;1.83;;
7432;SDS011;32233;49.500;7.764;2023-11-19T08:53:04;2.53;;;1.60;;
7432;SDS011;32233;49.500;7.764;2023-11-19T08:55:33;3.00;;;1.60;;
7432;SDS011;32233;49.500;7.764;2023-11-19T08:57:59;3.47;;;2.00;;
7432;SDS011;32233;49.500;7.764;2023-11-19T09:00:26;3.83;;;1.67;;
7432;SDS011;32233;49.500;7.764;2023-11-19T09:02:53;2.93;;;1.53;;
7432;SDS011;32233;49.500;7.764;2023-11-19T09:05:19;3.17;;;1.63;;
7432;SDS011;32233;49.500;7.764;2023-11-19T09:07:46;3.90;;;1.40;;
7432;SDS011;32233;49.500;7.764;2023-11-19T09:10:13;3.77;;;1.70;;
7432;SDS011;32233;49.500;7.764;2023-11-19T09:12:39;2.77;;;1.37;;
7432;SDS011;32233;49.500;7.764;2023-11-19T09:15:06;7.10;;;1.77;;
7432;SDS011;32233;49.500;7.764;2023-11-19T09:17:33;2.67;;;1.40;;
7432;SDS011;32233;49.500;7.764;2023-11-19T09:20:00;3.70;;;1.63;;
7432;SDS011;32233;49.500;7.764;2023-11-19T09:22:27;2.43;;;1.40;;
7432;SDS011;32233;49.500;7.764;2023-11-19T09:24:53;4.23;;;1.30;;
7432;SDS011;32233;49.500;7.764;2023-11-19T09:27:20;4.63;;;1.33;;
7432;SDS011;32233;49.500;7.764;2023-11-19T09:29:47;3.83;;;1.40;;
7432;SDS011;32233;49.500;7.764;2023-11-19T09:32:16;3.20;;;1.40;;
7432;SDS011;32233;49.500;7.764;2023-11-19T09:34:42;3.20;;;1.33;;
7432;SDS011;32233;49.500;7.764;2023-11-19T09:37:09;3.43;;;0.90;;
7432;SDS011;32233;49.500;7.764;2023-11-19T09:39:38;2.20;;;1.00;;
7432;SDS011;32233;49.500;7.764;2023-11-19T09:44:01;3.87;;;0.90;;
7432;SDS011;32233;49.500;7.764;2023-11-19T09:46:28;3.67;;;1.10;;
7432;SDS011;32233;49.500;7.764;2023-11-19T09:48:56;2.97;;;1.23;;
7432;SDS011;32233;49.500;7.764;2023-11-19T09:51:25;1.93;;;1.10;;
7432;SDS011;32233;49.500;7.764;2023-11-19T09:53:52;3.43;;;1.40;;
7432;SDS011;32233;49.500;7.764;2023-11-19T09:56:19;4.37;;;1.23;;
7432;SDS011;32233;49.500;7.764;2023-11-19T09:58:45;5.47;;;1.10;;
7432;SDS011;32233;49.500;7.764;2023-11-19T10:01:13;2.47;;;1.23;;
7432;SDS011;32233;49.500;7.764;2023-11-19T10:03:43;1.90;;;1.10;;
7432;SDS011;32233;49.500;7.764;2023-11-19T10:06:14;3.80;;;1.00;;
7432;SDS011;32233;49.500;7.764;2023-11-19T10:08:41;2.27;;;0.90;;
7432;SDS011;32233;49.500;7.764;2023-11-19T10:11:09;4.07;;;0.90;;
7432;SDS011;32233;49.500;7.764;2023-11-19T10:13:39;5.37;;;1.00;;
7432;SDS011;32233;49.500;7.764;2023-11-19T10:16:08;2.97;;;1.23;;
7432;SDS011;32233;49.500;7.764;2023-11-19T10:18:37;1.77;;;0.87;;
7432;SDS011;32233;49.500;7.764;2023-11-19T10:21:09;6.30;;;1.10;;
7432;SDS011;32233;49.500;7.764;2023-11-19T10:23:49;4.17;;;1.17;;
7432;SDS011;32233;49.500;7.764;2023-11-19T10:26:22;2.33;;;1.00;;
7432;SDS011;32233;49.500;7.764;2023-11-19T10:28:49;3.23;;;1.13;;
7432;SDS011;32233;49.500;7.764;2023-11-19T10:31:17;3.87;;;1.10;;
7432;SDS011;32233;49.500;7.764;2023-11-19T10:33:45;3.60;;;1.13;;
7432;SDS011;32233;49.500;7.764;2023-11-19T10:36:12;2.43;;;0.83;;
7432;SDS011;32233;49.500;7.764;2023-11-19T10:38:39;2.40;;;1.10;;
7432;SDS011;32233;49.500;7.764;2023-11-19T10:41:06;5.57;;;1.07;;
7432;SDS011;32233;49.500;7.764;2023-11-19T10:43:43;1.40;;;1.10;;
7432;SDS011;32233;49.500;7.764;2023-11-19T10:46:22;3.23;;;0.97;;
7432;SDS011;32233;49.500;7.764;2023-11-19T10:48:52;4.73;;;1.00;;
7432;SDS011;32233;49.500;7.764;2023-11-19T10:51:19;1.90;;;0.90;;
7432;SDS011;32233;49.500;7.764;2023-11-19T10:53:50;2.57;;;1.00;;
7432;SDS011;32233;49.500;7.764;2023-11-19T10:56:17;4.33;;;1.00;;
7432;SDS011;32233;49.500;7.764;2023-11-19T10:58:51;3.40;;;1.10;;
7432;SDS011;32233;49.500;7.764;2023-11-19T11:01:21;3.70;;;0.97;;
7432;SDS011;32233;49.500;7.764;2023-11-19T11:03:51;3.13;;;0.80;;
7432;SDS011;32233;49.500;7.764;2023-11-19T11:06:20;5.57;;;1.03;;
7432;SDS011;32233;49.500;7.764;2023-11-19T11:08:48;1.57;;;0.93;;
7432;SDS011;32233;49.500;7.764;2023-11-19T11:11:16;2.07;;;0.90;;
7432;SDS011;32233;49.500;7.764;2023-11-19T11:13:51;2.67;;;0.70;;
7432;SDS011;32233;49.500;7.764;2023-11-19T11:16:21;3.07;;;0.90;;
7432;SDS011;32233;49.500;7.764;2023-11-19T11:18:48;1.83;;;1.00;;
7432;SDS011;32233;49.500;7.764;2023-11-19T11:21:17;2.73;;;0.80;;
7432;SDS011;32233;49.500;7.764;2023-11-19T11:30:14;1.33;;;0.70;;
7432;SDS011;32233;49.500;7.764;2023-11-19T11:33:26;2.03;;;0.80;;
7432;SDS011;32233;49.500;7.764;2023-11-19T11:38:22;2.97;;;0.80;;
7432;SDS011;32233;49.500;7.764;2023-11-19T11:43:49;2.70;;;0.70;;
7432;SDS011;32233;49.500;7.764;2023-11-19T11:48:59;2.63;;;0.70;;
7432;SDS011;32233;49.500;7.764;2023-11-19T11:54:31;2.63;;;0.67;;
7432;SDS011;32233;49.500;7.764;2023-11-19T11:57:02;4.33;;;0.90;;
7432;SDS011;32233;49.500;7.764;2023-11-19T12:02:08;2.63;;;0.67;;
7432;SDS011;32233;49.500;7.764;2023-11-19T12:04:36;3.77;;;0.87;;
7432;SDS011;32233;49.500;7.764;2023-11-19T12:07:04;1.00;;;0.60;;
7432;SDS011;32233;49.500;7.764;2023-11-19T12:09:32;4.30;;;0.80;;
7432;SDS011;32233;49.500;7.764;2023-11-19T12:20:04;3.13;;;0.80;;
7432;SDS011;32233;49.500;7.764;2023-11-19T12:22:36;4.87;;;0.80;;
7432;SDS011;32233;49.500;7.764;2023-11-19T12:25:05;4.37;;;0.80;;
7432;SDS011;32233;49.500;7.764;2023-11-19T12:27:33;3.60;;;0.93;;
7432;SDS011;32233;49.500;7.764;2023-11-19T12:30:03;5.43;;;0.80;;
7432;SDS011;32233;49.500;7.764;2023-11-19T12:32:43;2.60;;;0.80;;
7432;SDS011;32233;49.500;7.764;2023-11-19T12:35:11;6.13;;;1.30;;
7432;SDS011;32233;49.500;7.764;2023-11-19T12:37:42;2.33;;;0.90;;
7432;SDS011;32233;49.500;7.764;2023-11-19T12:40:17;5.30;;;0.90;;
7432;SDS011;32233;49.500;7.764;2023-11-19T12:42:47;7.77;;;1.20;;
7432;SDS011;32233;49.500;7.764;2023-11-19T12:45:18;3.93;;;0.70;;
7432;SDS011;32233;49.500;7.764;2023-11-19T12:47:46;6.10;;;0.83;;
7432;SDS011;32233;49.500;7.764;2023-11-19T12:50:15;5.60;;;0.93;;
7432;SDS011;32233;49.500;7.764;2023-11-19T12:52:57;4.17;;;0.80;;
7432;SDS011;32233;49.500;7.764;2023-11-19T12:55:25;2.47;;;0.80;;
7432;SDS011;32233;49.500;7.764;2023-11-19T12:57:56;7.93;;;1.03;;
7432;SDS011;32233;49.500;7.764;2023-11-19T13:00:25;4.53;;;0.90;;
7432;SDS011;32233;49.500;7.764;2023-11-19T13:02:55;3.37;;;0.70;;
7432;SDS011;32233;49.500;7.764;2023-11-19T13:07:49;5.07;;;0.90;;
7432;SDS011;32233;49.500;7.764;2023-11-19T13:10:16;5.73;;;1.10;;
7432;SDS011;32233;49.500;7.764;2023-11-19T13:12:59;3.53;;;1.00;;
7432;SDS011;32233;49.500;7.764;2023-11-19T13:15:33;5.80;;;1.10;;
7432;SDS011;32233;49.500;7.764;2023-11-19T13:18:00;7.57;;;1.10;;
7432;SDS011;32233;49.500;7.764;2023-11-19T13:20:29;5.07;;;1.20;;
7432;SDS011;32233;49.500;7.764;2023-11-19T13:23:00;7.13;;;1.10;;
7432;SDS011;32233;49.500;7.764;2023-11-19T13:25:27;2.50;;;0.80;;
7432;SDS011;32233;49.500;7.764;2023-11-19T13:27:55;4.10;;;0.73;;
7432;SDS011;32233;49.500;7.764;2023-11-19T13:30:22;5.30;;;1.13;;
7432;SDS011;32233;49.500;7.764;2023-11-19T13:32:52;3.53;;;1.13;;
7432;SDS011;32233;49.500;7.764;2023-11-19T13:35:21;6.17;;;1.10;;
7432;SDS011;32233;49.500;7.764;2023-11-19T13:37:49;1.90;;;0.77;;
7432;SDS011;32233;49.500;7.764;2023-11-19T13:40:15;7.00;;;1.00;;
7432;SDS011;32233;49.500;7.764;2023-11-19T13:42:42;5.30;;;1.10;;
7432;SDS011;32233;49.500;7.764;2023-11-19T13:45:14;3.83;;;1.17;;
7432;SDS011;32233;49.500;7.764;2023-11-19T13:47:42;3.93;;;0.77;;
7432;SDS011;32233;49.500;7.764;2023-11-19T13:50:15;3.97;;;1.10;;
7432;SDS011;32233;49.500;7.764;2023-11-19T13:52:46;6.27;;;1.00;;
7432;SDS011;32233;49.500;7.764;2023-11-19T13:55:16;3.80;;;0.80;;
7432;SDS011;32233;49.500;7.764;2023-11-19T13:58:11;4.90;;;0.83;;
7432;SDS011;32233;49.500;7.764;2023-11-19T14:00:52;5.63;;;0.93;;
7432;SDS011;32233;49.500;7.764;2023-11-19T14:03:25;4.50;;;0.90;;
7432;SDS011;32233;49.500;7.764;2023-11-19T14:06:56;3.73;;;0.80;;
7432;SDS011;32233;49.500;7.764;2023-11-19T14:12:37;5.17;;;0.90;;
7432;SDS011;32233;49.500;7.764;2023-11-19T14:15:17;2.67;;;0.80;;
7432;SDS011;32233;49.500;7.764;2023-11-19T14:17:43;2.93;;;0.80;;
7432;SDS011;32233;49.500;7.764;2023-11-19T14:20:10;2.93;;;1.00;;
7432;SDS011;32233;49.500;7.764;2023-11-19T14:22:44;3.83;;;0.90;;
7432;SDS011;32233;49.500;7.764;2023-11-19T14:25:24;7.00;;;1.20;;
7432;SDS011;32233;49.500;7.764;2023-11-19T14:37:07;4.17;;;0.90;;
7432;SDS011;32233;49.500;7.764;2023-11-19T14:45:43;4.20;;;0.90;;
7432;SDS011;32233;49.500;7.764;2023-11-19T14:49:07;2.23;;;0.70;;
7432;SDS011;32233;49.500;7.764;2023-11-19T14:52:47;7.17;;;1.00;;
7432;SDS011;32233;49.500;7.764;2023-11-19T15:05:03;4.63;;;0.90;;
7432;SDS011;32233;49.500;7.764;2023-11-19T15:08:47;3.40;;;0.80;;
7432;SDS011;32233;49.500;7.764;2023-11-19T15:11:14;5.57;;;2.27;;
7432;SDS011;32233;49.500;7.764;2023-11-19T15:13:40;12.33;;;1.23;;
7432;SDS011;32233;49.500;7.764;2023-11-19T15:16:08;4.30;;;0.90;;
7432;SDS011;32233;49.500;7.764;2023-11-19T15:18:38;5.37;;;0.90;;
7432;SDS011;32233;49.500;7.764;2023-11-19T15:21:05;4.30;;;0.87;;
7432;SDS011;32233;49.500;7.764;2023-11-19T15:23:32;2.93;;;0.80;;
7432;SDS011;32233;49.500;7.764;2023-11-19T15:25:58;4.80;;;1.10;;
7432;SDS011;32233;49.500;7.764;2023-11-19T15:28:25;6.07;;;1.17;;
7432;SDS011;32233;49.500;7.764;2023-11-19T15:30:51;3.20;;;1.00;;
7432;SDS011;32233;49.500;7.764;2023-11-19T15:33:18;4.80;;;1.00;;
7432;SDS011;32233;49.500;7.764;2023-11-19T15:35:45;6.47;;;1.00;;
7432;SDS011;32233;49.500;7.764;2023-11-19T15:38:12;4.13;;;0.97;;
7432;SDS011;32233;49.500;7.764;2023-11-19T15:40:38;10.10;;;1.00;;
7432;SDS011;32233;49.500;7.764;2023-11-19T15:43:05;5.23;;;0.80;;
7432;SDS011;32233;49.500;7.764;2023-11-19T15:45:33;5.27;;;0.93;;
7432;SDS011;32233;49.500;7.764;2023-11-19T15:48:04;8.13;;;1.00;;
7432;SDS011;32233;49.500;7.764;2023-11-19T15:50:32;5.10;;;1.37;;
7432;SDS011;32233;49.500;7.764;2023-11-19T15:52:59;8.93;;;1.40;;
7432;SDS011;32233;49.500;7.764;2023-11-19T15:55:25;4.33;;;1.20;;
7432;SDS011;32233;49.500;7.764;2023-11-19T15:57:52;10.37;;;1.43;;
7432;SDS011;32233;49.500;7.764;2023-11-19T16:00:19;5.03;;;1.30;;
7432;SDS011;32233;49.500;7.764;2023-11-19T16:02:48;8.27;;;1.30;;
7432;SDS011;32233;49.500;7.764;2023-11-19T16:05:16;3.87;;;1.70;;
7432;SDS011;32233;49.500;7.764;2023-11-19T16:07:43;7.10;;;2.93;;
7432;SDS011;32233;49.500;7.764;2023-11-19T16:10:10;4.70;;;1.57;;
7432;SDS011;32233;49.500;7.764;2023-11-19T16:12:39;5.50;;;1.27;;
7432;SDS011;32233;49.500;7.764;2023-11-19T16:15:06;6.53;;;1.40;;